<?xml version="1.0" encoding="UTF-8" standalone="no"?>
<gpx version="1.1" creator="arnoldrimtrail.org" xmlns="http://www.topografix.com/GPX/1/1" xmlns:xsi="http://www.w3.org/2001/XMLSchema-instance" xmlns:gpxtpx="http://www.garmin.com/xmlschemas/TrackPointExtension/v1" xsi:schemaLocation="http://www.topografix.com/GPX/1/1 http://www.topografix.com/GPX/1/1/gpx.xsd http://www.garmin.com/xmlschemas/TrackPointExtension/v1 http://www.garmin.com/xmlschemas/TrackPointExtensionv1.xsd">
<metadata>
<name>Run the Rim 5K ARTA Route</name>
<link href="https://www.arnoldrimtrail.org/">
<text>ARTA</text>
</link>
</metadata>
<wpt lat="38.269051" lon="-120.346609">
</wpt>
<trk>
<name>
Run the Rim 5K
</name>
<link href="https://www.arnoldrimtrail.org/runtherim/">
</link>
<trkseg>
<trkpt lat="38.26636" lon="-120.34285">
<ele>1183.3</ele>
<time>2026-04-22T10:22:16-07:00</time>
</trkpt>
<trkpt lat="38.26639" lon="-120.3426">
<ele>1183.5</ele>
<time>2026-04-22T10:22:17-07:00</time>
</trkpt>
<trkpt lat="38.26644" lon="-120.34239">
<ele>1184.1</ele>
<time>2026-04-22T10:22:18-07:00</time>
</trkpt>
<trkpt lat="38.26649" lon="-120.34233">
<ele>1184</ele>
<time>2026-04-22T10:22:19-07:00</time>
</trkpt>
<trkpt lat="38.26657" lon="-120.3423">
<ele>1184.1</ele>
<time>2026-04-22T10:22:20-07:00</time>
</trkpt>
<trkpt lat="38.26672" lon="-120.34223">
<ele>1183.2</ele>
<time>2026-04-22T10:22:21-07:00</time>
</trkpt>
<trkpt lat="38.2668" lon="-120.34218">
<ele>1182.8</ele>
<time>2026-04-22T10:22:22-07:00</time>
</trkpt>
<trkpt lat="38.26686" lon="-120.34188">
<ele>1181</ele>
<time>2026-04-22T10:22:23-07:00</time>
</trkpt>
<trkpt lat="38.26691" lon="-120.34179">
<ele>1182</ele>
<time>2026-04-22T10:22:24-07:00</time>
</trkpt>
<trkpt lat="38.267" lon="-120.34173">
<ele>1181.9</ele>
<time>2026-04-22T10:22:25-07:00</time>
</trkpt>
<trkpt lat="38.26714" lon="-120.34159">
<ele>1181.6</ele>
<time>2026-04-22T10:22:26-07:00</time>
</trkpt>
<trkpt lat="38.2673" lon="-120.34131">
<ele>1181.7</ele>
<time>2026-04-22T10:22:27-07:00</time>
</trkpt>
<trkpt lat="38.26744" lon="-120.34094">
<ele>1182.1</ele>
<time>2026-04-22T10:22:28-07:00</time>
</trkpt>
<trkpt lat="38.26767" lon="-120.34063">
<ele>1184.9</ele>
<time>2026-04-22T10:22:29-07:00</time>
</trkpt>
<trkpt lat="38.26775" lon="-120.34057">
<ele>1184.6</ele>
<time>2026-04-22T10:22:30-07:00</time>
</trkpt>
<trkpt lat="38.26786" lon="-120.34039">
<ele>1184.9</ele>
<time>2026-04-22T10:22:31-07:00</time>
</trkpt>
<trkpt lat="38.268" lon="-120.34025">
<ele>1184.8</ele>
<time>2026-04-22T10:22:32-07:00</time>
</trkpt>
<trkpt lat="38.2682" lon="-120.34015">
<ele>1184.1</ele>
<time>2026-04-22T10:22:33-07:00</time>
</trkpt>
<trkpt lat="38.26826" lon="-120.34008">
<ele>1183.2</ele>
<time>2026-04-22T10:22:34-07:00</time>
</trkpt>
<trkpt lat="38.26845" lon="-120.33998">
<ele>1182.4</ele>
<time>2026-04-22T10:22:35-07:00</time>
</trkpt>
<trkpt lat="38.26852" lon="-120.33992">
<ele>1182.3</ele>
<time>2026-04-22T10:22:36-07:00</time>
</trkpt>
<trkpt lat="38.26871" lon="-120.33988">
<ele>1182.1</ele>
<time>2026-04-22T10:22:37-07:00</time>
</trkpt>
<trkpt lat="38.2688" lon="-120.33984">
<ele>1182</ele>
<time>2026-04-22T10:22:38-07:00</time>
</trkpt>
<trkpt lat="38.26897" lon="-120.33971">
<ele>1181.9</ele>
<time>2026-04-22T10:22:39-07:00</time>
</trkpt>
<trkpt lat="38.26915" lon="-120.33969">
<ele>1180.9</ele>
<time>2026-04-22T10:22:40-07:00</time>
</trkpt>
<trkpt lat="38.26923" lon="-120.33963">
<ele>1180.9</ele>
<time>2026-04-22T10:22:41-07:00</time>
</trkpt>
<trkpt lat="38.26932" lon="-120.3396">
<ele>1180.9</ele>
<time>2026-04-22T10:22:42-07:00</time>
</trkpt>
<trkpt lat="38.26939" lon="-120.33954">
<ele>1180.9</ele>
<time>2026-04-22T10:22:43-07:00</time>
</trkpt>
<trkpt lat="38.2695" lon="-120.33939">
<ele>1180.9</ele>
<time>2026-04-22T10:22:44-07:00</time>
</trkpt>
<trkpt lat="38.26959" lon="-120.33932">
<ele>1181.7</ele>
<time>2026-04-22T10:22:45-07:00</time>
</trkpt>
<trkpt lat="38.26968" lon="-120.33934">
<ele>1180.9</ele>
<time>2026-04-22T10:22:46-07:00</time>
</trkpt>
<trkpt lat="38.26986" lon="-120.3393">
<ele>1180.9</ele>
<time>2026-04-22T10:22:47-07:00</time>
</trkpt>
<trkpt lat="38.27006" lon="-120.33923">
<ele>1181.3</ele>
<time>2026-04-22T10:22:48-07:00</time>
</trkpt>
<trkpt lat="38.27015" lon="-120.33917">
<ele>1181.3</ele>
<time>2026-04-22T10:22:49-07:00</time>
</trkpt>
<trkpt lat="38.27033" lon="-120.33913">
<ele>1181.9</ele>
<time>2026-04-22T10:22:50-07:00</time>
</trkpt>
<trkpt lat="38.27053" lon="-120.33913">
<ele>1181.9</ele>
<time>2026-04-22T10:22:51-07:00</time>
</trkpt>
<trkpt lat="38.27071" lon="-120.33917">
<ele>1181.9</ele>
<time>2026-04-22T10:22:52-07:00</time>
</trkpt>
<trkpt lat="38.27089" lon="-120.3391">
<ele>1182.4</ele>
<time>2026-04-22T10:22:53-07:00</time>
</trkpt>
<trkpt lat="38.27098" lon="-120.33912">
<ele>1182.3</ele>
<time>2026-04-22T10:22:54-07:00</time>
</trkpt>
<trkpt lat="38.27108" lon="-120.33911">
<ele>1182.4</ele>
<time>2026-04-22T10:22:55-07:00</time>
</trkpt>
<trkpt lat="38.2712" lon="-120.33888">
<ele>1182.9</ele>
<time>2026-04-22T10:22:56-07:00</time>
</trkpt>
<trkpt lat="38.2715" lon="-120.33855">
<ele>1183.4</ele>
<time>2026-04-22T10:22:57-07:00</time>
</trkpt>
<trkpt lat="38.27205" lon="-120.33823">
<ele>1184.3</ele>
<time>2026-04-22T10:22:58-07:00</time>
</trkpt>
<trkpt lat="38.27299" lon="-120.33788">
<ele>1186.3</ele>
<time>2026-04-22T10:22:59-07:00</time>
</trkpt>
<trkpt lat="38.27343" lon="-120.33781">
<ele>1187.6</ele>
<time>2026-04-22T10:23:00-07:00</time>
</trkpt>
<trkpt lat="38.27419" lon="-120.33772">
<ele>1189.2</ele>
<time>2026-04-22T10:23:01-07:00</time>
</trkpt>
<trkpt lat="38.27447" lon="-120.33778">
<ele>1188.2</ele>
<time>2026-04-22T10:23:02-07:00</time>
</trkpt>
<trkpt lat="38.27464" lon="-120.33789">
<ele>1187.8</ele>
<time>2026-04-22T10:23:03-07:00</time>
</trkpt>
<trkpt lat="38.27479" lon="-120.33811">
<ele>1187.4</ele>
<time>2026-04-22T10:23:04-07:00</time>
</trkpt>
<trkpt lat="38.27492" lon="-120.33844">
<ele>1187.7</ele>
<time>2026-04-22T10:23:05-07:00</time>
</trkpt>
<trkpt lat="38.27494" lon="-120.33868">
<ele>1187.6</ele>
<time>2026-04-22T10:23:06-07:00</time>
</trkpt>
<trkpt lat="38.27487" lon="-120.33885">
<ele>1188.5</ele>
<time>2026-04-22T10:23:07-07:00</time>
</trkpt>
<trkpt lat="38.27465" lon="-120.33901">
<ele>1188.7</ele>
<time>2026-04-22T10:23:08-07:00</time>
</trkpt>
<trkpt lat="38.27413" lon="-120.33926">
<ele>1187.9</ele>
<time>2026-04-22T10:23:09-07:00</time>
</trkpt>
<trkpt lat="38.27393" lon="-120.33935">
<ele>1187.7</ele>
<time>2026-04-22T10:23:10-07:00</time>
</trkpt>
<trkpt lat="38.27381" lon="-120.3395">
<ele>1188.9</ele>
<time>2026-04-22T10:23:11-07:00</time>
</trkpt>
<trkpt lat="38.27351" lon="-120.33972">
<ele>1187.1</ele>
<time>2026-04-22T10:23:12-07:00</time>
</trkpt>
<trkpt lat="38.27273" lon="-120.34018">
<ele>1186.4</ele>
<time>2026-04-22T10:23:13-07:00</time>
</trkpt>
<trkpt lat="38.27238" lon="-120.34037">
<ele>1188.5</ele>
<time>2026-04-22T10:23:14-07:00</time>
</trkpt>
<trkpt lat="38.27219" lon="-120.34047">
<ele>1188.2</ele>
<time>2026-04-22T10:23:15-07:00</time>
</trkpt>
<trkpt lat="38.27209" lon="-120.3405">
<ele>1188.1</ele>
<time>2026-04-22T10:23:16-07:00</time>
</trkpt>
<trkpt lat="38.27188" lon="-120.3405">
<ele>1187.6</ele>
<time>2026-04-22T10:23:17-07:00</time>
</trkpt>
<trkpt lat="38.2717" lon="-120.34052">
<ele>1185.5</ele>
<time>2026-04-22T10:23:18-07:00</time>
</trkpt>
<trkpt lat="38.27121" lon="-120.34067">
<ele>1185.6</ele>
<time>2026-04-22T10:23:19-07:00</time>
</trkpt>
<trkpt lat="38.27111" lon="-120.34073">
<ele>1184.4</ele>
<time>2026-04-22T10:23:20-07:00</time>
</trkpt>
<trkpt lat="38.2708" lon="-120.34081">
<ele>1182.5</ele>
<time>2026-04-22T10:23:21-07:00</time>
</trkpt>
<trkpt lat="38.27074" lon="-120.34089">
<ele>1182.2</ele>
<time>2026-04-22T10:23:22-07:00</time>
</trkpt>
<trkpt lat="38.27071" lon="-120.34109">
<ele>1185</ele>
<time>2026-04-22T10:23:23-07:00</time>
</trkpt>
<trkpt lat="38.27066" lon="-120.34116">
<ele>1186.4</ele>
<time>2026-04-22T10:23:24-07:00</time>
</trkpt>
<trkpt lat="38.2704" lon="-120.34132">
<ele>1185.8</ele>
<time>2026-04-22T10:23:25-07:00</time>
</trkpt>
<trkpt lat="38.27015" lon="-120.34154">
<ele>1184.3</ele>
<time>2026-04-22T10:23:26-07:00</time>
</trkpt>
<trkpt lat="38.26997" lon="-120.34167">
<ele>1184.1</ele>
<time>2026-04-22T10:23:27-07:00</time>
</trkpt>
<trkpt lat="38.26992" lon="-120.34176">
<ele>1186</ele>
<time>2026-04-22T10:23:28-07:00</time>
</trkpt>
<trkpt lat="38.26983" lon="-120.34176">
<ele>1183.6</ele>
<time>2026-04-22T10:23:29-07:00</time>
</trkpt>
<trkpt lat="38.26972" lon="-120.34179">
<ele>1183.8</ele>
<time>2026-04-22T10:23:30-07:00</time>
</trkpt>
<trkpt lat="38.26965" lon="-120.34185">
<ele>1183.8</ele>
<time>2026-04-22T10:23:31-07:00</time>
</trkpt>
<trkpt lat="38.26956" lon="-120.34184">
<ele>1182.7</ele>
<time>2026-04-22T10:23:32-07:00</time>
</trkpt>
<trkpt lat="38.26937" lon="-120.34191">
<ele>1182.5</ele>
<time>2026-04-22T10:23:33-07:00</time>
</trkpt>
<trkpt lat="38.26905" lon="-120.34215">
<ele>1181.7</ele>
<time>2026-04-22T10:23:34-07:00</time>
</trkpt>
<trkpt lat="38.26899" lon="-120.34223">
<ele>1182.2</ele>
<time>2026-04-22T10:23:35-07:00</time>
</trkpt>
<trkpt lat="38.26898" lon="-120.34233">
<ele>1182.2</ele>
<time>2026-04-22T10:23:36-07:00</time>
</trkpt>
<trkpt lat="38.26891" lon="-120.34241">
<ele>1184.9</ele>
<time>2026-04-22T10:23:37-07:00</time>
</trkpt>
<trkpt lat="38.26872" lon="-120.34254">
<ele>1183.1</ele>
<time>2026-04-22T10:23:38-07:00</time>
</trkpt>
<trkpt lat="38.26856" lon="-120.34272">
<ele>1181.8</ele>
<time>2026-04-22T10:23:39-07:00</time>
</trkpt>
<trkpt lat="38.26853" lon="-120.34292">
<ele>1184.3</ele>
<time>2026-04-22T10:23:40-07:00</time>
</trkpt>
<trkpt lat="38.26859" lon="-120.34373">
<ele>1184.6</ele>
<time>2026-04-22T10:23:41-07:00</time>
</trkpt>
<trkpt lat="38.26854" lon="-120.34382">
<ele>1185.5</ele>
<time>2026-04-22T10:23:42-07:00</time>
</trkpt>
<trkpt lat="38.26845" lon="-120.34388">
<ele>1182.4</ele>
<time>2026-04-22T10:23:43-07:00</time>
</trkpt>
<trkpt lat="38.26809" lon="-120.34399">
<ele>1177.5</ele>
<time>2026-04-22T10:23:44-07:00</time>
</trkpt>
<trkpt lat="38.268" lon="-120.34405">
<ele>1173.3</ele>
<time>2026-04-22T10:23:45-07:00</time>
</trkpt>
<trkpt lat="38.26789" lon="-120.34409">
<ele>1174.1</ele>
<time>2026-04-22T10:23:46-07:00</time>
</trkpt>
<trkpt lat="38.26769" lon="-120.34447">
<ele>1178.6</ele>
<time>2026-04-22T10:23:47-07:00</time>
</trkpt>
<trkpt lat="38.26789" lon="-120.34505">
<ele>1174.7</ele>
<time>2026-04-22T10:23:48-07:00</time>
</trkpt>
<trkpt lat="38.26815" lon="-120.34551">
<ele>1170.5</ele>
<time>2026-04-22T10:23:49-07:00</time>
</trkpt>
<trkpt lat="38.26847" lon="-120.34576">
<ele>1170</ele>
<time>2026-04-22T10:23:50-07:00</time>
</trkpt>
<trkpt lat="38.26882" lon="-120.34622">
<ele>1169.4</ele>
<time>2026-04-22T10:23:51-07:00</time>
</trkpt>
<trkpt lat="38.26908" lon="-120.34667">
<ele>1174.3</ele>
<time>2026-04-22T10:23:52-07:00</time>
</trkpt>
<trkpt lat="38.26912" lon="-120.34664">
<ele>1173.9</ele>
<time>2026-04-22T10:23:53-07:00</time>
</trkpt>
<trkpt lat="38.26907" lon="-120.34694">
<ele>1177.1</ele>
<time>2026-04-22T10:23:54-07:00</time>
</trkpt>
<trkpt lat="38.26903" lon="-120.34707">
<ele>1176.6</ele>
<time>2026-04-22T10:23:55-07:00</time>
</trkpt>
<trkpt lat="38.26889" lon="-120.34724">
<ele>1177.3</ele>
<time>2026-04-22T10:23:56-07:00</time>
</trkpt>
<trkpt lat="38.26874" lon="-120.34742">
<ele>1182.1</ele>
<time>2026-04-22T10:23:57-07:00</time>
</trkpt>
<trkpt lat="38.26859" lon="-120.34758">
<ele>1186.6</ele>
<time>2026-04-22T10:23:58-07:00</time>
</trkpt>
<trkpt lat="38.26848" lon="-120.34768">
<ele>1187.1</ele>
<time>2026-04-22T10:23:59-07:00</time>
</trkpt>
<trkpt lat="38.26837" lon="-120.34776">
<ele>1186.7</ele>
<time>2026-04-22T10:24:00-07:00</time>
</trkpt>
<trkpt lat="38.26825" lon="-120.34782">
<ele>1187.6</ele>
<time>2026-04-22T10:24:01-07:00</time>
</trkpt>
<trkpt lat="38.26809" lon="-120.34789">
<ele>1188.5</ele>
<time>2026-04-22T10:24:02-07:00</time>
</trkpt>
<trkpt lat="38.26792" lon="-120.34795">
<ele>1190.6</ele>
<time>2026-04-22T10:24:03-07:00</time>
</trkpt>
<trkpt lat="38.26775" lon="-120.34803">
<ele>1189.3</ele>
<time>2026-04-22T10:24:04-07:00</time>
</trkpt>
<trkpt lat="38.26762" lon="-120.34812">
<ele>1188.4</ele>
<time>2026-04-22T10:24:05-07:00</time>
</trkpt>
<trkpt lat="38.26744" lon="-120.34824">
<ele>1187.3</ele>
<time>2026-04-22T10:24:06-07:00</time>
</trkpt>
<trkpt lat="38.26728" lon="-120.34839">
<ele>1185.4</ele>
<time>2026-04-22T10:24:07-07:00</time>
</trkpt>
<trkpt lat="38.26712" lon="-120.34853">
<ele>1183</ele>
<time>2026-04-22T10:24:08-07:00</time>
</trkpt>
<trkpt lat="38.26694" lon="-120.34869">
<ele>1182.2</ele>
<time>2026-04-22T10:24:09-07:00</time>
</trkpt>
<trkpt lat="38.26675" lon="-120.34885">
<ele>1178.8</ele>
<time>2026-04-22T10:24:10-07:00</time>
</trkpt>
<trkpt lat="38.26659" lon="-120.34904">
<ele>1177</ele>
<time>2026-04-22T10:24:11-07:00</time>
</trkpt>
<trkpt lat="38.26642" lon="-120.34922">
<ele>1175.8</ele>
<time>2026-04-22T10:24:12-07:00</time>
</trkpt>
<trkpt lat="38.26627" lon="-120.3494">
<ele>1174.7</ele>
<time>2026-04-22T10:24:13-07:00</time>
</trkpt>
<trkpt lat="38.26621" lon="-120.34951">
<ele>1173.5</ele>
<time>2026-04-22T10:24:14-07:00</time>
</trkpt>
<trkpt lat="38.26615" lon="-120.34969">
<ele>1176.7</ele>
<time>2026-04-22T10:24:15-07:00</time>
</trkpt>
<trkpt lat="38.26614" lon="-120.34985">
<ele>1178.3</ele>
<time>2026-04-22T10:24:16-07:00</time>
</trkpt>
<trkpt lat="38.2662" lon="-120.35017">
<ele>1180.2</ele>
<time>2026-04-22T10:24:17-07:00</time>
</trkpt>
<trkpt lat="38.26623" lon="-120.35046">
<ele>1182.2</ele>
<time>2026-04-22T10:24:18-07:00</time>
</trkpt>
<trkpt lat="38.26621" lon="-120.35068">
<ele>1182</ele>
<time>2026-04-22T10:24:19-07:00</time>
</trkpt>
<trkpt lat="38.26613" lon="-120.35095">
<ele>1182.1</ele>
<time>2026-04-22T10:24:20-07:00</time>
</trkpt>
<trkpt lat="38.26601" lon="-120.35126">
<ele>1184.3</ele>
<time>2026-04-22T10:24:21-07:00</time>
</trkpt>
<trkpt lat="38.26595" lon="-120.35149">
<ele>1182.1</ele>
<time>2026-04-22T10:24:22-07:00</time>
</trkpt>
<trkpt lat="38.26589" lon="-120.35183">
<ele>1182.9</ele>
<time>2026-04-22T10:24:23-07:00</time>
</trkpt>
<trkpt lat="38.26587" lon="-120.35203">
<ele>1182.6</ele>
<time>2026-04-22T10:24:24-07:00</time>
</trkpt>
<trkpt lat="38.26584" lon="-120.35223">
<ele>1179.9</ele>
<time>2026-04-22T10:24:25-07:00</time>
</trkpt>
<trkpt lat="38.26578" lon="-120.35246">
<ele>1179.4</ele>
<time>2026-04-22T10:24:26-07:00</time>
</trkpt>
<trkpt lat="38.2657" lon="-120.35266">
<ele>1178.4</ele>
<time>2026-04-22T10:24:27-07:00</time>
</trkpt>
<trkpt lat="38.26561" lon="-120.35285">
<ele>1176.4</ele>
<time>2026-04-22T10:24:28-07:00</time>
</trkpt>
<trkpt lat="38.26555" lon="-120.35298">
<ele>1175.2</ele>
<time>2026-04-22T10:24:29-07:00</time>
</trkpt>
<trkpt lat="38.26548" lon="-120.3531">
<ele>1174.4</ele>
<time>2026-04-22T10:24:30-07:00</time>
</trkpt>
<trkpt lat="38.26539" lon="-120.35326">
<ele>1174</ele>
<time>2026-04-22T10:24:31-07:00</time>
</trkpt>
<trkpt lat="38.2653" lon="-120.35342">
<ele>1174.1</ele>
<time>2026-04-22T10:24:32-07:00</time>
</trkpt>
<trkpt lat="38.26528" lon="-120.35348">
<ele>1174.1</ele>
<time>2026-04-22T10:24:33-07:00</time>
</trkpt>
<trkpt lat="38.26527" lon="-120.35356">
<ele>1174.5</ele>
<time>2026-04-22T10:24:34-07:00</time>
</trkpt>
<trkpt lat="38.26525" lon="-120.35363">
<ele>1174.7</ele>
<time>2026-04-22T10:24:35-07:00</time>
</trkpt>
<trkpt lat="38.2652" lon="-120.35368">
<ele>1174.7</ele>
<time>2026-04-22T10:24:36-07:00</time>
</trkpt>
<trkpt lat="38.26514" lon="-120.35368">
<ele>1174.8</ele>
<time>2026-04-22T10:24:37-07:00</time>
</trkpt>
<trkpt lat="38.26508" lon="-120.35364">
<ele>1175.3</ele>
<time>2026-04-22T10:24:38-07:00</time>
</trkpt>
<trkpt lat="38.26501" lon="-120.35363">
<ele>1175.3</ele>
<time>2026-04-22T10:24:39-07:00</time>
</trkpt>
<trkpt lat="38.26492" lon="-120.35364">
<ele>1175.8</ele>
<time>2026-04-22T10:24:40-07:00</time>
</trkpt>
<trkpt lat="38.26483" lon="-120.35363">
<ele>1176.3</ele>
<time>2026-04-22T10:24:41-07:00</time>
</trkpt>
<trkpt lat="38.26473" lon="-120.3536">
<ele>1178.1</ele>
<time>2026-04-22T10:24:42-07:00</time>
</trkpt>
<trkpt lat="38.26464" lon="-120.35352">
<ele>1177.8</ele>
<time>2026-04-22T10:24:43-07:00</time>
</trkpt>
<trkpt lat="38.26456" lon="-120.35344">
<ele>1180</ele>
<time>2026-04-22T10:24:44-07:00</time>
</trkpt>
<trkpt lat="38.26477" lon="-120.35347">
<ele>1181.6</ele>
<time>2026-04-22T10:24:45-07:00</time>
</trkpt>
<trkpt lat="38.26491" lon="-120.35344">
<ele>1182.2</ele>
<time>2026-04-22T10:24:46-07:00</time>
</trkpt>
<trkpt lat="38.26509" lon="-120.3533">
<ele>1185.4</ele>
<time>2026-04-22T10:24:47-07:00</time>
</trkpt>
<trkpt lat="38.26572" lon="-120.35224">
<ele>1186.4</ele>
<time>2026-04-22T10:24:48-07:00</time>
</trkpt>
<trkpt lat="38.26577" lon="-120.35184">
<ele>1188.3</ele>
<time>2026-04-22T10:24:49-07:00</time>
</trkpt>
<trkpt lat="38.26609" lon="-120.35066">
<ele>1188.9</ele>
<time>2026-04-22T10:24:50-07:00</time>
</trkpt>
<trkpt lat="38.26607" lon="-120.35046">
<ele>1189</ele>
<time>2026-04-22T10:24:51-07:00</time>
</trkpt>
<trkpt lat="38.266" lon="-120.35022">
<ele>1189.9</ele>
<time>2026-04-22T10:24:52-07:00</time>
</trkpt>
<trkpt lat="38.26589" lon="-120.34996">
<ele>1190.8</ele>
<time>2026-04-22T10:24:53-07:00</time>
</trkpt>
<trkpt lat="38.26578" lon="-120.34947">
<ele>1190.8</ele>
<time>2026-04-22T10:24:54-07:00</time>
</trkpt>
<trkpt lat="38.26579" lon="-120.3492">
<ele>1192.1</ele>
<time>2026-04-22T10:24:55-07:00</time>
</trkpt>
<trkpt lat="38.26583" lon="-120.34904">
<ele>1193.7</ele>
<time>2026-04-22T10:24:56-07:00</time>
</trkpt>
<trkpt lat="38.26609" lon="-120.34856">
<ele>1193.1</ele>
<time>2026-04-22T10:24:57-07:00</time>
</trkpt>
<trkpt lat="38.26616" lon="-120.34851">
<ele>1194.7</ele>
<time>2026-04-22T10:24:58-07:00</time>
</trkpt>
<trkpt lat="38.26644" lon="-120.34846">
<ele>1194.3</ele>
<time>2026-04-22T10:24:59-07:00</time>
</trkpt>
<trkpt lat="38.26653" lon="-120.3484">
<ele>1195.3</ele>
<time>2026-04-22T10:25:00-07:00</time>
</trkpt>
<trkpt lat="38.26659" lon="-120.34832">
<ele>1194.1</ele>
<time>2026-04-22T10:25:01-07:00</time>
</trkpt>
<trkpt lat="38.2672" lon="-120.34812">
<ele>1198.3</ele>
<time>2026-04-22T10:25:02-07:00</time>
</trkpt>
<trkpt lat="38.26739" lon="-120.34801">
<ele>1198</ele>
<time>2026-04-22T10:25:03-07:00</time>
</trkpt>
<trkpt lat="38.268" lon="-120.34754">
<ele>1203.5</ele>
<time>2026-04-22T10:25:04-07:00</time>
</trkpt>
<trkpt lat="38.26813" lon="-120.34741">
<ele>1204</ele>
<time>2026-04-22T10:25:05-07:00</time>
</trkpt>
<trkpt lat="38.26818" lon="-120.34727">
<ele>1204.7</ele>
<time>2026-04-22T10:25:06-07:00</time>
</trkpt>
<trkpt lat="38.26818" lon="-120.34712">
<ele>1204.9</ele>
<time>2026-04-22T10:25:07-07:00</time>
</trkpt>
<trkpt lat="38.26804" lon="-120.34695">
<ele>1208.7</ele>
<time>2026-04-22T10:25:08-07:00</time>
</trkpt>
<trkpt lat="38.2675" lon="-120.34663">
<ele>1209.1</ele>
<time>2026-04-22T10:25:09-07:00</time>
</trkpt>
<trkpt lat="38.26727" lon="-120.34656">
<ele>1209.7</ele>
<time>2026-04-22T10:25:10-07:00</time>
</trkpt>
<trkpt lat="38.26656" lon="-120.34601">
<ele>1210</ele>
<time>2026-04-22T10:25:11-07:00</time>
</trkpt>
<trkpt lat="38.26648" lon="-120.34586">
<ele>1210.6</ele>
<time>2026-04-22T10:25:12-07:00</time>
</trkpt>
<trkpt lat="38.26638" lon="-120.34541">
<ele>1209.3</ele>
<time>2026-04-22T10:25:13-07:00</time>
</trkpt>
<trkpt lat="38.2663" lon="-120.34519">
<ele>1206.2</ele>
<time>2026-04-22T10:25:14-07:00</time>
</trkpt>
<trkpt lat="38.26614" lon="-120.34495">
<ele>1205</ele>
<time>2026-04-22T10:25:15-07:00</time>
</trkpt>
<trkpt lat="38.26607" lon="-120.34488">
<ele>1203.4</ele>
<time>2026-04-22T10:25:16-07:00</time>
</trkpt>
<trkpt lat="38.26594" lon="-120.34485">
<ele>1203.1</ele>
<time>2026-04-22T10:25:17-07:00</time>
</trkpt>
<trkpt lat="38.26578" lon="-120.34487">
<ele>1201.1</ele>
<time>2026-04-22T10:25:18-07:00</time>
</trkpt>
<trkpt lat="38.26547" lon="-120.34499">
<ele>1199.1</ele>
<time>2026-04-22T10:25:19-07:00</time>
</trkpt>
<trkpt lat="38.26516" lon="-120.34502">
<ele>1195.9</ele>
<time>2026-04-22T10:25:20-07:00</time>
</trkpt>
<trkpt lat="38.26509" lon="-120.34498">
<ele>1194.3</ele>
<time>2026-04-22T10:25:21-07:00</time>
</trkpt>
<trkpt lat="38.26505" lon="-120.34488">
<ele>1193.6</ele>
<time>2026-04-22T10:25:22-07:00</time>
</trkpt>
<trkpt lat="38.26508" lon="-120.34479">
<ele>1192.9</ele>
<time>2026-04-22T10:25:23-07:00</time>
</trkpt>
<trkpt lat="38.265" lon="-120.34471">
<ele>1192.1</ele>
<time>2026-04-22T10:25:24-07:00</time>
</trkpt>
<trkpt lat="38.26487" lon="-120.34467">
<ele>1190.2</ele>
<time>2026-04-22T10:25:25-07:00</time>
</trkpt>
<trkpt lat="38.26476" lon="-120.34465">
<ele>1189.5</ele>
<time>2026-04-22T10:25:26-07:00</time>
</trkpt>
<trkpt lat="38.26463" lon="-120.34461">
<ele>1188.1</ele>
<time>2026-04-22T10:25:27-07:00</time>
</trkpt>
<trkpt lat="38.26461" lon="-120.34457">
<ele>1187.6</ele>
<time>2026-04-22T10:25:28-07:00</time>
</trkpt>
<trkpt lat="38.26482" lon="-120.34435">
<ele>1188.4</ele>
<time>2026-04-22T10:25:29-07:00</time>
</trkpt>
<trkpt lat="38.26489" lon="-120.34423">
<ele>1188.2</ele>
<time>2026-04-22T10:25:30-07:00</time>
</trkpt>
<trkpt lat="38.26491" lon="-120.34416">
<ele>1187.8</ele>
<time>2026-04-22T10:25:31-07:00</time>
</trkpt>
<trkpt lat="38.26516" lon="-120.34381">
<ele>1186</ele>
<time>2026-04-22T10:25:32-07:00</time>
</trkpt>
<trkpt lat="38.26519" lon="-120.34373">
<ele>1186.3</ele>
<time>2026-04-22T10:25:33-07:00</time>
</trkpt>
<trkpt lat="38.26521" lon="-120.34367">
<ele>1184.7</ele>
<time>2026-04-22T10:25:34-07:00</time>
</trkpt>
<trkpt lat="38.26522" lon="-120.34357">
<ele>1184</ele>
<time>2026-04-22T10:25:35-07:00</time>
</trkpt>
<trkpt lat="38.26522" lon="-120.34346">
<ele>1183.6</ele>
<time>2026-04-22T10:25:36-07:00</time>
</trkpt>
<trkpt lat="38.26522" lon="-120.3434">
<ele>1183.1</ele>
<time>2026-04-22T10:25:37-07:00</time>
</trkpt>
<trkpt lat="38.26522" lon="-120.34334">
<ele>1183.1</ele>
<time>2026-04-22T10:25:38-07:00</time>
</trkpt>
<trkpt lat="38.26522" lon="-120.34332">
<ele>1182.9</ele>
<time>2026-04-22T10:25:39-07:00</time>
</trkpt>
<trkpt lat="38.2652" lon="-120.34321">
<ele>1182.7</ele>
<time>2026-04-22T10:25:40-07:00</time>
</trkpt>
<trkpt lat="38.2652" lon="-120.34315">
<ele>1182.7</ele>
<time>2026-04-22T10:25:41-07:00</time>
</trkpt>
<trkpt lat="38.26522" lon="-120.34287">
<ele>1182.8</ele>
<time>2026-04-22T10:25:42-07:00</time>
</trkpt>
<trkpt lat="38.26524" lon="-120.34278">
<ele>1182.8</ele>
<time>2026-04-22T10:25:43-07:00</time>
</trkpt>
<trkpt lat="38.26527" lon="-120.34278">
<ele>1182.8</ele>
<time>2026-04-22T10:25:44-07:00</time>
</trkpt>
<trkpt lat="38.26533" lon="-120.34278">
<ele>1181.4</ele>
<time>2026-04-22T10:25:45-07:00</time>
</trkpt>
<trkpt lat="38.26536" lon="-120.34277">
<ele>1181.9</ele>
<time>2026-04-22T10:25:46-07:00</time>
</trkpt>
<trkpt lat="38.26539" lon="-120.34274">
<ele>1181.1</ele>
<time>2026-04-22T10:25:47-07:00</time>
</trkpt>
<trkpt lat="38.26549" lon="-120.34271">
<ele>1181.3</ele>
<time>2026-04-22T10:25:48-07:00</time>
</trkpt>
<trkpt lat="38.26564" lon="-120.34267">
<ele>1181.3</ele>
<time>2026-04-22T10:25:49-07:00</time>
</trkpt>
<trkpt lat="38.26598" lon="-120.3427">
<ele>1180.9</ele>
<time>2026-04-22T10:25:50-07:00</time>
</trkpt>
<trkpt lat="38.26616" lon="-120.34278">
<ele>1181.8</ele>
<time>2026-04-22T10:25:51-07:00</time>
</trkpt>
<trkpt lat="38.26628" lon="-120.34284">
<ele>1182.8</ele>
<time>2026-04-22T10:25:52-07:00</time>
</trkpt>
</trkseg>
</trk>
</gpx>
